.
WxDataArchive / Data Records for 2010-05-30
2010-05-29 May 2010 2010-05-31

Data Records for Sunday, 30 May 2010

Time	Temp	Chill	HIndex	Humid	Dewpt	 Wind 	HiWind	WindDir	Rain 	Barom 
-----	----	-----	------	-----	-----	------	------	-------	-----	----- 
00:00	69.1	69.1	69.1	60	54.6	0	0	---	0.00	29.933 
00:05	68.8	68.8	68.8	61	54.8	0	0	---	0.00	29.933 
00:10	68.4	68.4	68.4	62	54.9	0	0	---	0.00	29.933 
00:15	68.3	68.3	68.3	64	55.6	0	0	---	0.00	29.932 
00:20	67.8	67.8	67.8	64	55.2	0	0	---	0.00	29.932 
00:25	67.4	67.4	67.4	65	55.2	0	0	---	0.00	29.932 
00:30	67.1	67.1	67.1	65	54.9	0	0	---	0.00	29.944 
00:35	66.9	66.9	66.9	66	55.2	0	0	---	0.00	29.944 
00:40	66.6	66.6	66.6	67	55.3	0	0	---	0.00	29.944 
00:45	66.4	66.4	66.4	68	55.5	0	0	---	0.00	29.945 
00:50	66.3	66.3	66.3	69	55.8	0	0	---	0.00	29.945 
00:55	66.0	66.0	66.0	69	55.5	0	0	---	0.00	29.945 
01:00	65.8	65.8	65.8	71	56.1	0	0	---	0.00	29.943 
01:05	65.6	65.6	65.6	72	56.3	0	0	---	0.00	29.943 
01:10	65.5	65.5	65.5	73	56.6	0	0	---	0.00	29.943 
01:15	65.3	65.3	65.3	74	56.8	0	0	---	0.00	29.945 
01:20	65.2	65.2	65.2	74	56.7	0	0	---	0.00	29.945 
01:25	64.8	64.8	64.8	75	56.7	0	0	---	0.00	29.945 
01:30	64.7	64.7	64.7	75	56.6	0	0	---	0.00	29.945 
01:35	64.5	64.5	64.5	76	56.8	0	0	---	0.00	29.945 
01:40	64.2	64.2	64.2	76	56.5	0	0	---	0.00	29.945 
01:45	64.0	64.0	64.0	77	56.6	0	0	---	0.00	29.945 
01:50	63.9	63.9	63.9	77	56.5	0	0	---	0.00	29.945 
01:55	63.7	63.7	63.7	78	56.7	0	0	---	0.00	29.945 
02:00	63.5	63.5	63.5	80	57.2	0	0	---	0.00	29.941 
02:05	63.4	63.4	63.4	80	57.1	0	0	---	0.00	29.941 
02:10	63.4	63.4	63.4	81	57.5	0	0	---	0.00	29.941 
02:15	63.2	63.2	63.2	83	57.9	0	0	---	0.00	29.942 
02:20	63.1	63.1	63.1	84	58.2	0	0	---	0.00	29.942 
02:25	62.9	62.9	62.9	84	58.0	0	0	---	0.00	29.942 
02:30	62.7	62.7	62.7	84	57.8	0	0	---	0.00	29.941 
02:35	62.6	62.6	62.6	84	57.7	0	0	---	0.00	29.941 
02:40	62.4	62.4	62.4	84	57.5	0	0	---	0.00	29.941 
02:45	62.3	62.3	62.3	84	57.4	0	0	---	0.00	29.940 
02:50	62.1	62.1	62.1	84	57.2	0	0	---	0.00	29.940 
02:55	62.0	62.0	62.0	85	57.4	0	0	---	0.00	29.940 
03:00	61.8	61.8	61.8	85	57.2	0	0	---	0.00	29.934 
03:05	61.8	61.8	61.8	85	57.2	0	0	---	0.00	29.934 
03:10	61.6	61.6	61.6	85	57.0	0	0	---	0.00	29.934 
03:15	61.5	61.5	61.5	85	56.9	0	0	---	0.00	29.931 
03:20	61.5	61.5	61.5	86	57.3	0	0	---	0.00	29.931 
03:25	61.3	61.3	61.3	86	57.1	0	0	---	0.00	29.931 
03:30	61.2	61.2	61.2	86	57.0	0	0	---	0.00	29.931 
03:35	61.0	61.0	61.0	87	57.1	0	0	---	0.00	29.931 
03:40	61.0	61.0	61.0	87	57.1	0	0	---	0.00	29.931 
03:45	60.9	60.9	60.9	88	57.3	0	0	---	0.00	29.932 
03:50	60.9	60.9	60.9	88	57.3	0	0	---	0.00	29.932 
03:55	60.9	60.9	60.9	89	57.6	0	0	---	0.00	29.932 
04:00	60.9	60.9	60.9	89	57.6	0	0	---	0.00	29.929 
04:05	60.7	60.7	60.7	90	57.7	0	0	---	0.00	29.929 
04:10	60.7	60.7	60.7	90	57.7	0	0	---	0.00	29.929 
04:15	60.5	60.5	60.5	90	57.5	0	0	---	0.00	29.932 
04:20	60.5	60.5	60.5	90	57.5	0	0	---	0.00	29.932 
04:25	60.4	60.4	60.4	90	57.4	0	0	---	0.00	29.932 
04:30	60.2	60.2	60.2	91	57.6	0	0	---	0.00	29.934 
04:35	60.1	60.1	60.1	91	57.5	0	0	---	0.00	29.934 
04:40	60.1	60.1	60.1	91	57.5	0	0	---	0.00	29.934 
04:45	59.9	59.9	59.9	91	57.3	0	0	---	0.00	29.934 
04:50	59.8	59.8	59.8	91	57.2	0	0	---	0.00	29.934 
04:55	59.6	59.6	59.6	91	57.0	0	0	---	0.00	29.934 
05:00	59.6	59.6	59.6	91	57.0	0	0	---	0.00	29.935 
05:05	59.5	59.5	59.5	91	56.9	0	0	---	0.00	29.935 
05:10	59.5	59.5	59.5	91	56.9	0	0	---	0.00	29.935 
05:15	59.3	59.3	59.3	91	56.7	0	0	---	0.00	29.937 
05:20	59.3	59.3	59.3	91	56.7	0	0	---	0.00	29.937 
05:25	59.2	59.2	59.2	91	56.6	0	0	---	0.00	29.937 
05:30	59.2	59.2	59.2	91	56.6	0	0	---	0.00	29.937 
05:35	59.0	59.0	59.0	91	56.4	0	0	---	0.00	29.937 
05:40	59.0	59.0	59.0	92	56.7	0	0	---	0.00	29.937 
05:45	59.0	59.0	59.0	92	56.7	0	0	---	0.00	29.945 
05:50	58.9	58.9	58.9	92	56.6	0	0	---	0.00	29.945 
05:55	58.9	58.9	58.9	92	56.6	0	0	---	0.00	29.945 
06:00	58.7	58.7	58.7	92	56.4	0	0	---	0.00	29.951 
06:05	58.7	58.7	58.7	92	56.4	0	0	---	0.00	29.951 
06:10	58.7	58.7	58.7	92	56.4	0	0	---	0.00	29.951 
06:15	58.7	58.7	58.7	92	56.4	0	0	---	0.00	29.956 
06:20	58.7	58.7	58.7	92	56.4	0	0	---	0.00	29.956 
06:25	58.7	58.7	58.7	92	56.4	0	0	---	0.00	29.956 
06:30	58.7	58.7	58.7	93	56.7	0	0	---	0.00	29.962 
06:35	58.7	58.7	58.7	93	56.7	0	0	---	0.00	29.962 
06:40	58.7	58.7	58.7	93	56.7	0	0	---	0.00	29.962 
06:45	58.7	58.7	58.7	93	56.7	0	0	---	0.00	29.970 
06:50	58.9	58.9	58.9	93	56.9	0	0	---	0.00	29.970 
06:55	59.0	59.0	59.0	93	57.0	0	0	---	0.00	29.970 
07:00	59.2	59.2	59.2	93	57.2	0	0	---	0.00	29.970 
07:05	59.3	59.3	59.3	93	57.3	0	0	---	0.00	29.970 
07:10	59.5	59.5	59.5	93	57.5	0	0	---	0.00	29.970 
07:15	59.8	59.8	59.8	93	57.8	0	0	---	0.00	29.975 
07:20	60.2	60.2	60.2	94	58.5	0	0	---	0.00	29.975 
07:25	60.9	60.9	60.9	93	58.9	0	0	---	0.00	29.975 
07:30	61.6	61.6	61.6	93	59.6	0	0	---	0.00	29.984 
07:35	62.7	62.7	62.7	91	60.0	0	0	---	0.00	29.984 
07:40	64.0	64.0	64.0	85	59.4	0	1	90	0.00	29.984 
07:45	65.2	65.2	65.2	81	59.2	0	1	90	0.00	29.988 
07:50	66.1	66.1	66.1	75	57.9	1	4	90	0.00	29.988 
07:55	67.4	67.4	67.4	73	58.4	0	1	112	0.00	29.988 
08:00	68.4	68.4	68.4	70	58.2	0	1	112	0.00	29.987 
08:05	69.3	69.3	69.3	69	58.7	0	1	112	0.00	29.987 
08:10	69.9	69.9	69.9	67	58.4	0	3	112	0.00	29.987 
08:15	70.4	70.4	70.4	67	58.9	1	3	112	0.00	29.995 
08:20	70.6	70.6	70.6	68	59.5	1	3	112	0.00	29.995 
08:25	70.9	70.9	70.9	67	59.4	0	2	112	0.00	29.995 
08:30	71.3	71.3	71.3	65	58.9	0	4	112	0.00	29.990 
08:35	71.8	71.8	71.8	66	59.8	0	2	112	0.00	29.990 
08:40	72.5	72.5	72.5	64	59.6	1	2	112	0.00	29.990 
08:45	72.8	72.8	72.8	63	59.5	0	3	112	0.00	29.990 
08:50	73.2	73.2	73.2	64	60.3	0	2	112	0.00	29.990 
08:55	73.5	73.5	73.5	63	60.1	0	3	112	0.00	29.990 
09:00	73.7	73.7	73.7	60	58.9	1	3	112	0.00	29.993 
09:05	73.9	73.9	73.9	58	58.2	1	3	112	0.00	29.993 
09:10	74.2	74.2	74.2	60	59.4	1	3	112	0.00	29.993 
09:15	74.9	74.9	74.9	58	59.1	0	2	112	0.00	29.994 
09:20	75.4	75.4	77.8	54	57.6	0	1	112	0.00	29.994 
09:25	76.1	76.1	78.1	54	58.2	0	3	112	0.00	29.994 
09:30	76.5	76.5	78.4	52	57.5	1	3	112	0.00	29.993 
09:35	76.7	76.7	78.4	51	57.2	0	3	112	0.00	29.993 
09:40	77.0	77.0	78.6	51	57.5	1	5	90	0.00	29.993 
09:45	76.8	76.8	78.5	52	57.8	2	4	90	0.00	29.993 
09:50	76.7	76.7	78.5	52	57.7	2	5	112	0.00	29.993 
09:55	77.0	77.0	78.7	52	58.0	1	3	112	0.00	29.993 
10:00	77.7	77.7	79.0	50	57.6	0	2	112	0.00	29.992 
10:05	78.5	78.5	79.5	48	57.2	1	3	112	0.00	29.992 
10:10	78.6	78.6	79.7	50	58.4	1	3	112	0.00	29.992 
10:15	79.0	79.0	79.8	48	57.6	1	3	112	0.00	29.992 
10:20	79.2	79.2	80.0	48	57.8	1	5	90	0.00	29.992 
10:25	79.0	79.0	80.0	51	59.3	1	3	90	0.00	29.992 
10:30	79.0	79.0	79.9	49	58.2	2	5	90	0.00	29.981 
10:35	79.0	79.0	80.0	50	58.7	2	4	90	0.00	29.981 
10:40	79.2	79.2	79.9	47	57.2	2	4	90	0.00	29.981 
10:45	79.6	79.6	80.3	48	58.2	1	3	45	0.00	29.976 
10:50	80.1	80.1	80.5	46	57.4	1	3	135	0.00	29.976 
10:55	80.7	80.7	81.0	46	58.0	1	3	135	0.00	29.976 
11:00	80.5	80.5	80.8	46	57.8	2	5	90	0.00	29.976 
11:05	80.5	80.5	80.7	45	57.2	2	3	90	0.00	29.976 
11:10	80.9	80.9	81.2	46	58.2	1	3	112	0.00	29.976 
11:15	81.4	81.4	81.2	42	56.1	1	5	68	0.00	29.979 
11:20	82.0	82.0	82.3	47	59.8	1	3	68	0.00	29.979 
11:25	82.6	82.6	82.2	42	57.2	1	4	112	0.00	29.979 
11:30	82.4	82.4	81.9	41	56.3	2	4	112	0.00	29.973 
11:35	82.6	82.6	82.1	41	56.5	0	2	68	0.00	29.973 
11:40	83.4	83.4	83.0	42	57.9	1	5	112	0.00	29.973 
11:45	83.6	83.6	82.6	38	55.3	1	3	112	0.00	29.970 
11:50	84.0	84.0	83.1	39	56.3	1	3	45	0.00	29.970 
11:55	84.1	84.1	83.9	43	59.2	1	4	90	0.00	29.970 
12:00	84.1	84.1	83.2	39	56.4	1	4	90	0.00	29.969 
12:05	84.3	84.3	83.1	37	55.2	1	3	90	0.00	29.969 
12:10	84.7	84.7	83.5	37	55.5	1	3	112	0.00	29.969 
12:15	84.9	84.9	83.0	32	51.7	1	6	112	0.00	29.967 
12:20	85.1	85.1	83.5	34	53.5	1	3	180	0.00	29.967 
12:25	84.9	84.9	83.4	35	54.2	1	4	90	0.00	29.967 
12:30	84.7	84.7	83.1	34	53.2	2	5	90	0.00	29.966 
12:35	84.7	84.7	83.2	35	54.0	1	4	112	0.00	29.966 
12:40	84.7	84.7	83.4	36	54.8	1	3	112	0.00	29.966 
12:45	85.1	85.1	83.6	35	54.3	1	4	135	0.00	29.962 
12:50	85.5	85.5	84.9	40	58.4	1	3	112	0.00	29.962 
12:55	85.7	85.7	84.9	39	57.9	1	3	112	0.00	29.962 
13:00	85.5	85.5	84.0	35	54.7	1	4	112	0.00	29.956 
13:05	85.7	85.7	84.0	34	54.1	0	3	112	0.00	29.956 
13:10	85.9	85.9	84.2	34	54.2	1	5	112	0.00	29.956 
13:15	86.1	86.1	84.4	34	54.4	1	4	90	0.00	29.949 
13:20	85.7	85.7	83.9	33	53.2	2	4	90	0.00	29.949 
13:25	85.3	85.3	83.5	33	52.9	1	5	112	0.00	29.949 
13:30	85.3	85.3	83.5	33	52.9	1	3	112	0.00	29.948 
13:35	85.5	85.5	84.0	35	54.7	1	3	112	0.00	29.948 
13:40	85.9	85.9	83.8	31	51.7	2	5	112	0.00	29.948 
13:45	86.3	86.3	84.3	32	52.9	1	5	90	0.00	29.940 
13:50	86.3	86.3	84.8	35	55.4	2	6	90	0.00	29.940 
13:55	86.1	86.1	84.3	33	53.6	0	3	112	0.00	29.940 
14:00	86.3	86.3	84.5	33	53.8	1	4	112	0.00	29.943 
14:05	86.5	86.5	84.5	32	53.1	0	2	112	0.00	29.943 
14:10	86.7	86.7	84.9	33	54.1	0	3	112	0.00	29.943 
14:15	87.2	87.2	85.4	33	54.6	1	5	112	0.00	29.935 
14:20	87.4	87.4	85.8	34	55.5	1	5	90	0.00	29.935 
14:25	87.4	87.4	85.0	29	51.2	2	5	90	0.00	29.935 
14:30	87.4	87.4	85.3	31	53.0	0	2	90	0.00	29.933 
14:35	87.6	87.6	85.3	30	52.3	1	3	90	0.00	29.933 
14:40	87.6	87.6	85.3	30	52.3	1	3	90	0.00	29.933 
14:45	88.0	88.0	85.6	29	51.7	1	3	135	0.00	29.929 
14:50	88.2	88.2	86.1	31	53.7	1	3	135	0.00	29.929 
14:55	88.0	88.0	85.6	29	51.7	1	2	135	0.00	29.929 
15:00	88.2	88.2	86.5	33	55.4	0	2	135	0.00	29.920 
15:05	88.0	88.0	85.6	29	51.7	1	4	315	0.00	29.920 
15:10	88.2	88.2	86.1	31	53.7	0	1	315	0.00	29.920 
15:15	88.6	88.6	86.6	31	54.1	1	2	90	0.00	29.917 
15:20	88.6	88.6	86.0	28	51.3	0	3	90	0.00	29.917 
15:25	88.6	88.6	86.6	31	54.1	0	2	90	0.00	29.917 
15:30	88.8	88.8	86.6	30	53.3	1	4	90	0.00	29.912 
15:35	89.0	89.0	87.4	33	56.1	0	2	90	0.00	29.912 
15:40	89.3	89.3	87.3	31	54.7	1	3	90	0.00	29.912 
15:45	89.0	89.0	86.4	28	51.6	1	4	292	0.00	29.904 
15:50	88.8	88.8	86.4	29	52.4	1	4	270	0.00	29.904 
15:55	88.8	88.8	86.8	31	54.2	1	3	270	0.00	29.904 
16:00	88.6	88.6	85.9	27	50.3	1	4	270	0.00	29.901 
16:05	88.6	88.6	86.2	29	52.2	1	5	270	0.00	29.901 
16:10	88.6	88.6	86.0	28	51.3	1	4	0	0.00	29.901 
16:15	88.6	88.6	86.0	28	51.3	0	3	0	0.00	29.902 
16:20	88.6	88.6	86.0	28	51.3	0	1	0	0.00	29.902 
16:25	88.6	88.6	86.0	28	51.3	0	2	0	0.00	29.902 
16:30	88.6	88.6	86.0	28	51.3	0	1	0	0.00	29.897 
16:35	88.8	88.8	86.4	29	52.4	0	1	0	0.00	29.897 
16:40	89.0	89.0	86.4	28	51.6	0	2	0	0.00	29.897 
16:45	88.6	88.6	85.9	27	50.3	0	2	0	0.00	29.890 
16:50	88.8	88.8	86.2	28	51.4	0	1	0	0.00	29.890 
16:55	89.3	89.3	87.1	30	53.8	0	1	0	0.00	29.890 
17:00	89.5	89.5	87.2	29	53.0	0	1	0	0.00	29.885 
17:05	89.7	89.7	87.2	28	52.2	0	2	0	0.00	29.885 
17:10	89.5	89.5	87.0	28	52.0	1	2	22	0.00	29.885 
17:15	89.5	89.5	87.6	31	54.8	0	1	22	0.00	29.884 
17:20	89.5	89.5	87.0	28	52.0	1	2	45	0.00	29.884 
17:25	89.5	89.5	86.8	27	51.1	0	3	45	0.00	29.884 
17:30	89.5	89.5	86.8	27	51.1	0	2	45	0.00	29.883 
17:35	89.0	89.0	86.6	29	52.6	1	3	45	0.00	29.883 
17:40	88.8	88.8	86.4	29	52.4	0	1	45	0.00	29.883 
17:45	88.6	88.6	86.0	28	51.3	0	1	45	0.00	29.875 
17:50	88.6	88.6	86.4	30	53.2	0	2	45	0.00	29.875 
17:55	88.4	88.4	85.7	27	50.1	0	2	45	0.00	29.875 
18:00	88.2	88.2	85.6	28	50.9	0	1	45	0.00	29.873 
18:05	88.0	88.0	85.4	28	50.8	0	1	45	0.00	29.873 
18:10	87.8	87.8	85.1	27	49.6	0	2	45	0.00	29.873 
18:15	87.6	87.6	85.0	28	50.4	0	2	45	0.00	29.872 
18:20	87.4	87.4	84.8	28	50.3	0	1	45	0.00	29.872 
18:25	87.4	87.4	84.8	28	50.3	0	1	45	0.00	29.872 
18:30	87.2	87.2	84.6	28	50.1	0	1	45	0.00	29.867 
18:35	87.0	87.0	84.6	29	50.9	0	1	45	0.00	29.867 
18:40	86.7	86.7	84.6	31	52.4	0	1	45	0.00	29.867 
18:45	86.5	86.5	84.0	28	49.5	0	1	45	0.00	29.864 
18:50	86.3	86.3	84.2	31	52.1	0	1	45	0.00	29.864 
18:55	86.3	86.3	83.8	28	49.3	0	1	45	0.00	29.864 
19:00	86.1	86.1	83.8	30	51.0	0	0	---	0.00	29.867 
19:05	86.1	86.1	84.0	31	51.9	0	1	45	0.00	29.867 
19:10	85.9	85.9	83.8	31	51.7	0	1	45	0.00	29.867 
19:15	85.9	85.9	84.4	35	55.0	0	1	45	0.00	29.861 
19:20	85.7	85.7	83.6	31	51.5	0	1	45	0.00	29.861 
19:25	85.7	85.7	83.6	31	51.5	0	1	45	0.00	29.861 
19:30	85.5	85.5	83.4	31	51.4	0	0	---	0.00	29.861 
19:35	85.3	85.3	83.4	32	52.1	0	0	---	0.00	29.861 
19:40	85.3	85.3	83.6	34	53.7	0	0	---	0.00	29.861 
19:45	85.1	85.1	83.5	34	53.5	0	0	---	0.00	29.867 
19:50	84.9	84.9	83.1	33	52.6	0	0	---	0.00	29.867 
19:55	84.7	84.7	83.2	35	54.0	0	1	158	0.00	29.867 
20:00	84.5	84.5	83.3	37	55.3	0	0	---	0.00	29.863 
20:05	84.3	84.3	82.9	35	53.6	0	0	---	0.00	29.863 
20:10	84.1	84.1	82.5	34	52.7	0	0	---	0.00	29.863 
20:15	84.0	84.0	82.6	35	53.4	0	0	---	0.00	29.860 
20:20	83.8	83.8	82.4	35	53.2	0	0	---	0.00	29.860 
20:25	83.4	83.4	82.4	38	55.1	0	0	---	0.00	29.860 
20:30	83.0	83.0	82.1	38	54.7	0	0	---	0.00	29.864 
20:35	82.6	82.6	81.7	38	54.4	0	0	---	0.00	29.864 
20:40	82.0	82.0	81.3	39	54.6	0	0	---	0.00	29.864 
20:45	81.6	81.6	81.5	43	56.9	0	0	---	0.00	29.865 
20:50	81.1	81.1	81.1	44	57.1	0	0	---	0.00	29.865 
20:55	80.7	80.7	80.9	45	57.4	0	0	---	0.00	29.865 
21:00	80.1	80.1	80.3	44	56.2	0	0	---	0.00	29.866 
21:05	79.8	79.8	80.2	45	56.5	0	0	---	0.00	29.866 
21:10	79.2	79.2	79.8	45	56.0	0	0	---	0.00	29.866 
21:15	78.6	78.6	79.3	44	54.8	0	0	---	0.00	29.866 
21:20	78.3	78.3	79.2	46	55.8	0	0	---	0.00	29.866 
21:25	77.9	77.9	79.1	48	56.6	0	0	---	0.00	29.866 
21:30	77.6	77.6	78.9	48	56.3	0	0	---	0.00	29.868 
21:35	77.2	77.2	78.7	49	56.5	0	0	---	0.00	29.868 
21:40	76.8	76.8	78.5	50	56.7	0	0	---	0.00	29.868 
21:45	76.5	76.5	78.3	51	57.0	0	0	---	0.00	29.877 
21:50	76.1	76.1	78.1	53	57.7	0	0	---	0.00	29.877 
21:55	75.8	75.8	78.0	54	57.9	0	0	---	0.00	29.877 
22:00	75.4	75.4	77.8	53	57.1	0	0	---	0.00	29.879 
22:05	75.3	75.3	77.7	54	57.5	0	0	---	0.00	29.879 
22:10	74.9	74.9	74.9	54	57.1	0	0	---	0.00	29.879 
22:15	74.6	74.6	74.6	56	57.8	0	0	---	0.00	29.880 
22:20	74.4	74.4	74.4	57	58.2	0	0	---	0.00	29.880 
22:25	74.0	74.0	74.0	58	58.3	0	0	---	0.00	29.880 
22:30	73.9	73.9	73.9	58	58.2	0	0	---	0.00	29.884 
22:35	73.5	73.5	73.5	59	58.3	0	0	---	0.00	29.884 
22:40	73.3	73.3	73.3	59	58.1	0	0	---	0.00	29.884 
22:45	73.0	73.0	73.0	60	58.3	0	0	---	0.00	29.888 
22:50	72.8	72.8	72.8	60	58.1	0	0	---	0.00	29.888 
22:55	72.7	72.7	72.7	60	58.0	0	0	---	0.00	29.888 
23:00	72.5	72.5	72.5	61	58.3	0	0	---	0.00	29.893 
23:05	72.3	72.3	72.3	61	58.1	0	0	---	0.00	29.893 
23:10	72.1	72.1	72.1	62	58.3	0	0	---	0.00	29.893 
23:15	72.1	72.1	72.1	63	58.8	0	0	---	0.00	29.889 
23:20	72.0	72.0	72.0	64	59.1	0	0	---	0.00	29.889 
23:25	71.8	71.8	71.8	65	59.4	0	0	---	0.00	29.889 
23:30	71.8	71.8	71.8	66	59.8	0	0	---	0.00	29.884 
23:35	71.6	71.6	71.6	67	60.0	0	0	---	0.00	29.884 
23:40	71.6	71.6	71.6	68	60.5	0	0	---	0.00	29.884 
23:45	71.5	71.5	71.5	69	60.8	0	0	---	0.00	29.882 
23:50	71.5	71.5	71.5	68	60.4	0	0	---	0.00	29.882 
23:55	71.3	71.3	71.3	68	60.2	0	0	---	0.00	29.882 

CoCoRaHS
IN-AL-39
A2 Web Hosting
Creative Commons License
GoDaddy
search engine by freefind advanced

loaded 2018-11-16 00:03:03 • last modified 2010-11-18 10:43:29
Privacy PolicyDisclaimer
• wx.awcolley.com is powered by PmWiki v.2002016 •
• all content (unless otherwise noted) © 2018 A W Colley